Aérodrome :
LOGIN :

S'inscrire | Disclaimer

   EN    FR    IT 

 










Légende :    VFR   VFR Marginal   IFR   IFR Intensif   IFR Très Intensif
Visi : 
Plafond : 
>= 8 km
>= 3000ft
5 à 8 km
1000 à 3000 ft
1500m à 5 km
500 à 1000 ft
800 à 1500m
200 à 500 ft
< 800m
< 200 ft
Symboles :   Orages  Brouillard  Fortes neiges  Fortes précipitations  Vent > 20 kt
SIGMETs :   Divers  Orages  Givrage  Turbulence  Onde Orograph.  Cendres Volcan.







- Altitude de l'aérodrome : 183 ft
- Code IATA : HAJ


EDDV - Hanover/Langenhagen Int.

DERNIER METAR :
  • 180620Z 21006KT 180V240 9999 FEW020 SCT085 BKN250 19/16 Q1013 NOSIG

METARs EXPIRÉS :
  • 180550Z 18005KT 9999 FEW020 SCT100 BKN250 19/16 Q1013 NOSIG
  • 180520Z 18007KT CAVOK 18/16 Q1013 NOSIG
  • 180450Z 18006KT 9999 FEW021 SCT140 18/16 Q1013 NOSIG
  • 180420Z 18005KT 9999 SCT022 18/15 Q1014 NOSIG
  • 180350Z 15004KT 9999 BKN025 18/16 Q1014 NOSIG

TAF TAF EDDV
Valide du 18 à 06h jusqu'au 19 à 06h UTC


180500Z 1806/1906 19007KT 9999 BKN025
TEMPO 1808/1817 3500 RA BKN012
PROB30
TEMPO 1817/1906 BKN012
PROB30
TEMPO 1822/1906 3500 BR
Pas de NOTAMs connus pour ce terrain.



MET'MAP, la Météo Aéronautique d'un coup d'oeil ! - Copyright ORBIFLY Décembre 2007 - Disclaimer

ORBIFLY MET'MAP TEAM :

Programmation & Développement : Alexandra Zaïnal
Conception & Développement : Baudouin d'Aumeries
Co-Programmation & Développement : Marc-Olivier Méhu
Soutien technique & logistique : Manuel Goepfert

Contact : metmap@orbifly.com




SOURCES & CREDITS :

   NOAA